createdAt,value
2022-11-03T00:01:53.579Z,2.42
2022-11-03T00:04:22.223Z,3.30
2022-11-03T00:06:51.184Z,2.60
2022-11-03T00:09:19.375Z,2.60
2022-11-03T00:11:50.623Z,2.78
2022-11-03T00:14:20.076Z,2.72
2022-11-03T00:16:47.221Z,2.83
2022-11-03T00:19:16.166Z,2.40
2022-11-03T00:21:45.667Z,2.85
2022-11-03T00:24:13.396Z,2.45
2022-11-03T00:26:40.345Z,2.58
2022-11-03T00:29:09.860Z,2.10
2022-11-03T00:31:38.350Z,2.80
2022-11-03T00:34:07.048Z,3.05
2022-11-03T00:36:42.689Z,2.45
2022-11-03T00:39:12.734Z,2.33
2022-11-03T00:41:40.329Z,2.28
2022-11-03T00:44:07.168Z,2.28
2022-11-03T00:46:36.857Z,2.10
2022-11-03T00:49:05.003Z,1.95
2022-11-03T00:51:37.671Z,2.38
2022-11-03T00:54:06.064Z,2.63
2022-11-03T00:56:38.134Z,2.08
2022-11-03T00:59:06.460Z,2.50
2022-11-03T01:01:40.620Z,2.65
2022-11-03T01:04:29.877Z,2.53
2022-11-03T01:06:59.607Z,2.20
2022-11-03T01:09:45.835Z,2.05
2022-11-03T01:12:18.082Z,2.47
2022-11-03T01:14:50.271Z,2.83
2022-11-03T01:17:25.551Z,3.13
2022-11-03T01:19:54.930Z,2.42
2022-11-03T01:22:24.457Z,1.90
2022-11-03T01:24:54.514Z,2.38
2022-11-03T01:27:25.626Z,1.83
2022-11-03T01:29:52.289Z,2.75
2022-11-03T01:32:19.017Z,2.40
2022-11-03T01:34:48.191Z,2.55
2022-11-03T01:37:14.858Z,2.53
2022-11-03T01:39:43.748Z,2.28
2022-11-03T01:42:14.447Z,2.22
2022-11-03T01:44:48.467Z,2.25
2022-11-03T01:47:26.055Z,2.03
2022-11-03T01:49:54.581Z,2.63
2022-11-03T01:52:29.916Z,2.85
2022-11-03T01:55:02.165Z,2.53
2022-11-03T01:57:45.340Z,2.20
2022-11-03T02:00:12.647Z,2.45
2022-11-03T02:02:40.334Z,2.35
2022-11-03T02:05:07.978Z,2.92
2022-11-03T02:07:48.208Z,2.67
2022-11-03T02:10:15.069Z,2.58
2022-11-03T02:12:43.238Z,2.75
2022-11-03T02:15:13.452Z,2.17
2022-11-03T02:17:44.727Z,2.63
2022-11-03T02:20:20.580Z,2.10
2022-11-03T02:22:56.615Z,2.10
2022-11-03T02:25:48.159Z,2.35
2022-11-03T02:28:27.021Z,2.60
2022-11-03T02:31:29.175Z,2.35
2022-11-03T02:34:27.163Z,2.20
2022-11-03T02:36:55.009Z,2.90
2022-11-03T02:39:24.900Z,2.67
2022-11-03T02:44:20.573Z,2.10
2022-11-03T02:46:50.759Z,2.50
2022-11-03T02:49:17.441Z,2.00
2022-11-03T02:51:44.142Z,2.35
2022-11-03T02:54:22.169Z,2.22
2022-11-03T02:57:03.508Z,2.42
2022-11-03T02:59:37.836Z,2.85
2022-11-03T03:02:14.080Z,2.67
2022-11-03T03:04:44.474Z,2.20
2022-11-03T03:07:27.039Z,2.05
2022-11-03T03:10:02.304Z,2.58
2022-11-03T03:12:30.846Z,2.97
2022-11-03T03:15:03.848Z,2.45
2022-11-03T03:18:27.610Z,2.70
2022-11-03T03:21:03.229Z,2.78
2022-11-03T03:23:35.963Z,2.17
2022-11-03T03:26:10.242Z,2.50
2022-11-03T03:28:39.069Z,2.08
2022-11-03T03:31:11.615Z,3.53
2022-11-03T03:33:42.104Z,2.55
2022-11-03T03:36:15.217Z,2.05
2022-11-03T03:38:47.809Z,2.35
2022-11-03T03:41:21.859Z,2.10
2022-11-03T03:43:54.870Z,2.30
2022-11-03T03:46:23.542Z,2.40
2022-11-03T03:48:50.270Z,2.05
2022-11-03T03:51:20.811Z,2.20
2022-11-03T03:53:52.416Z,2.53
2022-11-03T03:56:26.190Z,2.15
2022-11-03T03:58:55.105Z,2.35
2022-11-03T04:01:21.870Z,2.25
2022-11-03T04:03:51.146Z,2.42
2022-11-03T04:06:20.172Z,2.88
2022-11-03T04:08:46.835Z,2.70
2022-11-03T04:11:32.168Z,2.88
2022-11-03T04:14:17.797Z,2.50
2022-11-03T04:17:03.267Z,3.00
2022-11-03T04:19:48.841Z,2.67
2022-11-03T04:22:18.531Z,1.70
2022-11-03T04:24:46.869Z,2.45
2022-11-03T04:27:30.460Z,2.42
2022-11-03T04:30:24.991Z,2.42
2022-11-03T04:32:52.813Z,2.28
2022-11-03T04:35:27.800Z,2.90
2022-11-03T04:38:02.470Z,2.72
2022-11-03T04:40:29.756Z,2.00
2022-11-03T04:42:58.912Z,2.45
2022-11-03T04:45:34.034Z,2.53
2022-11-03T04:48:06.606Z,2.65
2022-11-03T04:50:33.280Z,2.88
2022-11-03T04:53:02.587Z,2.45
2022-11-03T04:55:31.740Z,2.17
2022-11-03T04:58:02.468Z,2.40
2022-11-03T05:00:31.336Z,2.95
2022-11-03T05:02:58.050Z,2.72
2022-11-03T05:05:26.467Z,2.67
2022-11-03T05:07:57.806Z,2.63
2022-11-03T05:10:29.439Z,2.22
2022-11-03T05:12:57.577Z,2.03
2022-11-03T05:15:35.671Z,2.20
2022-11-03T05:18:13.172Z,2.45
2022-11-03T05:20:46.589Z,2.28
2022-11-03T05:23:14.034Z,2.22
2022-11-03T05:25:45.438Z,2.08
2022-11-03T05:28:23.000Z,2.17
2022-11-03T05:30:51.097Z,2.58
2022-11-03T05:33:33.701Z,2.25
2022-11-03T05:36:16.505Z,2.42
2022-11-03T05:38:43.241Z,2.40
2022-11-03T05:41:21.092Z,2.40
2022-11-03T05:44:30.981Z,2.60
2022-11-03T05:49:27.082Z,2.40
2022-11-03T05:51:53.778Z,2.57
2022-11-03T05:54:27.224Z,2.78
2022-11-03T05:56:55.025Z,2.75
2022-11-03T05:59:26.510Z,1.90
2022-11-03T06:02:01.339Z,2.47
2022-11-03T06:04:32.936Z,2.40
2022-11-03T06:07:03.919Z,1.92
2022-11-03T06:09:33.309Z,1.85
2022-11-03T06:12:02.350Z,2.22
2022-11-03T06:14:33.421Z,2.33
2022-11-03T06:17:07.183Z,2.60
2022-11-03T06:19:43.825Z,3.50
2022-11-03T06:22:36.315Z,2.65
2022-11-03T06:25:33.444Z,2.00
2022-11-03T06:28:03.788Z,2.60
2022-11-03T06:30:33.702Z,2.03
2022-11-03T06:35:28.601Z,2.10
2022-11-03T06:37:57.902Z,2.78
2022-11-03T06:40:35.365Z,2.13
2022-11-03T06:43:19.776Z,2.40
2022-11-03T06:45:52.522Z,2.10
2022-11-03T06:48:33.575Z,2.25
2022-11-03T06:51:06.009Z,2.53
2022-11-03T06:53:34.203Z,2.40
2022-11-03T06:56:00.927Z,1.60
2022-11-03T06:58:38.386Z,2.20
2022-11-03T07:01:21.957Z,2.65
2022-11-03T07:04:01.194Z,2.80
2022-11-03T07:06:36.492Z,2.83
2022-11-03T07:09:06.721Z,2.20
2022-11-03T07:11:50.615Z,2.92
2022-11-03T07:14:26.762Z,2.70
2022-11-03T07:16:56.032Z,2.53
2022-11-03T07:19:30.753Z,2.45
2022-11-03T07:22:19.264Z,2.15
2022-11-03T07:24:48.016Z,2.30
2022-11-03T07:27:26.445Z,2.20
2022-11-03T07:29:58.630Z,2.42
2022-11-03T07:32:30.431Z,2.92
2022-11-03T07:35:20.227Z,1.73
2022-11-03T07:37:52.440Z,2.08
2022-11-03T07:40:23.402Z,2.30
2022-11-03T07:42:59.199Z,2.85
2022-11-03T07:45:39.517Z,2.72
2022-11-03T07:48:19.910Z,2.42
2022-11-03T07:50:48.079Z,1.85
2022-11-03T07:53:39.573Z,2.70
2022-11-03T07:56:21.241Z,2.35
2022-11-03T07:59:09.858Z,2.08
2022-11-03T08:01:47.099Z,2.83
2022-11-03T08:04:21.989Z,2.05
2022-11-03T08:06:49.050Z,2.65
2022-11-03T08:09:18.331Z,2.13
2022-11-03T08:11:45.533Z,2.20
2022-11-03T08:14:12.861Z,2.03
2022-11-03T08:16:39.897Z,2.22
2022-11-03T08:19:07.451Z,2.00
2022-11-03T08:21:34.330Z,2.53
2022-11-03T08:24:01.184Z,2.58
2022-11-03T08:26:28.365Z,2.47
2022-11-03T08:28:55.109Z,2.40
2022-11-03T08:31:21.802Z,1.95
2022-11-03T08:33:48.494Z,1.98
2022-11-03T08:36:15.286Z,2.42
2022-11-03T08:38:42.156Z,2.00
2022-11-03T08:41:08.935Z,2.53
2022-11-03T08:43:36.014Z,1.98
2022-11-03T08:46:08.362Z,2.28
2022-11-03T08:48:40.008Z,2.45
2022-11-03T08:51:08.319Z,2.10
2022-11-03T08:53:35.336Z,2.10
2022-11-03T08:56:02.010Z,2.33
2022-11-03T08:58:28.881Z,2.22
2022-11-03T09:00:55.523Z,2.10
2022-11-03T09:03:22.334Z,2.35
2022-11-03T09:05:51.327Z,2.33
2022-11-03T09:11:04.909Z,2.53
2022-11-03T09:13:31.740Z,2.38
2022-11-03T09:16:00.633Z,2.40
2022-11-03T09:18:29.867Z,2.67
2022-11-03T09:20:56.549Z,2.60
2022-11-03T09:23:23.268Z,3.00
2022-11-03T09:25:49.975Z,2.22
2022-11-03T09:28:16.638Z,2.28
2022-11-03T09:30:45.461Z,2.70
2022-11-03T09:33:12.155Z,1.92
2022-11-03T09:35:38.834Z,2.55
2022-11-03T09:38:08.098Z,2.22
2022-11-03T09:40:37.741Z,2.63
2022-11-03T09:43:04.886Z,2.00
2022-11-03T09:45:32.179Z,2.08
2022-11-03T09:47:59.082Z,1.90
2022-11-03T09:50:26.025Z,2.20
2022-11-03T09:52:54.378Z,2.25
2022-11-03T09:55:26.230Z,2.63
2022-11-03T09:57:59.241Z,2.58
2022-11-03T10:00:27.284Z,2.15
2022-11-03T10:02:54.509Z,2.08
2022-11-03T10:05:25.649Z,1.92
2022-11-03T10:08:05.380Z,2.40
2022-11-03T10:10:32.523Z,2.20
2022-11-03T10:13:00.568Z,1.67
2022-11-03T10:15:27.978Z,2.30
2022-11-03T10:17:55.535Z,2.15
2022-11-03T10:20:26.425Z,2.28
2022-11-03T10:22:54.889Z,2.00
2022-11-03T10:25:38.214Z,2.03
2022-11-03T10:28:22.668Z,2.47
2022-11-03T10:31:11.773Z,2.15
2022-11-03T10:36:16.484Z,2.08
2022-11-03T10:38:44.196Z,2.30
2022-11-03T10:41:11.126Z,1.90
2022-11-03T10:43:42.009Z,2.17
2022-11-03T10:46:29.512Z,2.30
2022-11-03T10:49:15.123Z,2.00
2022-11-03T10:51:43.335Z,2.50
2022-11-03T10:54:16.694Z,2.28
2022-11-03T10:56:45.637Z,2.30
2022-11-03T10:59:17.565Z,2.20
2022-11-03T11:01:44.788Z,2.20
2022-11-03T11:04:17.444Z,2.20
2022-11-03T11:06:47.328Z,2.10
2022-11-03T11:12:06.581Z,2.65
2022-11-03T11:14:39.104Z,2.17
2022-11-03T11:17:06.328Z,2.38
2022-11-03T11:20:11.346Z,2.88
2022-11-03T11:22:40.269Z,2.30
2022-11-03T11:25:07.158Z,2.63
2022-11-03T11:27:38.977Z,3.05
2022-11-03T11:30:27.389Z,3.22
2022-11-03T11:33:01.128Z,2.30
2022-11-03T11:35:27.781Z,2.30
2022-11-03T11:37:54.765Z,1.70
2022-11-03T11:40:24.284Z,2.35
2022-11-03T11:43:03.000Z,2.20
2022-11-03T11:46:06.877Z,2.55
2022-11-03T11:48:36.316Z,2.53
2022-11-03T11:51:03.925Z,1.85
2022-11-03T11:53:41.269Z,2.47
2022-11-03T11:56:16.381Z,2.22
2022-11-03T11:58:53.995Z,2.53
2022-11-03T12:01:36.486Z,2.47
2022-11-03T12:06:47.952Z,2.88
2022-11-03T12:09:23.697Z,2.20
2022-11-03T12:12:00.732Z,2.67
2022-11-03T12:14:31.808Z,2.55
2022-11-03T12:17:19.473Z,2.63
2022-11-03T12:19:50.200Z,2.05
2022-11-03T12:22:28.217Z,2.20
2022-11-03T12:24:58.875Z,2.53
2022-11-03T12:27:25.607Z,2.40
2022-11-03T12:29:57.528Z,2.35
2022-11-03T12:32:34.012Z,2.33
2022-11-03T12:35:08.109Z,2.50
2022-11-03T12:37:37.309Z,3.50
2022-11-03T12:40:06.686Z,2.65
2022-11-03T12:42:33.418Z,2.22
2022-11-03T12:45:00.200Z,2.60
2022-11-03T12:47:29.085Z,3.03
2022-11-03T12:49:58.020Z,2.10
2022-11-03T12:52:27.202Z,2.30
2022-11-03T12:54:56.155Z,2.20
2022-11-03T12:57:25.372Z,2.50
2022-11-03T12:59:54.536Z,2.40
2022-11-03T13:02:21.339Z,2.28
2022-11-03T13:04:48.156Z,2.40
2022-11-03T13:07:14.858Z,2.30
2022-11-03T13:09:41.575Z,2.42
2022-11-03T13:12:30.780Z,2.50
2022-11-03T13:15:01.936Z,2.65
2022-11-03T13:17:35.919Z,2.92
2022-11-03T13:22:43.925Z,2.80
2022-11-03T13:25:11.056Z,2.90
2022-11-03T13:27:37.846Z,2.83
2022-11-03T13:30:05.900Z,2.58
2022-11-03T13:32:35.077Z,2.30
2022-11-03T13:35:01.926Z,2.83
2022-11-03T13:37:28.562Z,2.20
2022-11-03T13:39:55.359Z,2.70
2022-11-03T13:42:22.015Z,2.88
2022-11-03T13:44:51.208Z,2.42
2022-11-03T13:47:17.949Z,2.60
2022-11-03T13:50:12.513Z,2.38
2022-11-03T13:52:31.326Z,2.72
2022-11-03T14:00:36.206Z,3.38
2022-11-03T14:05:52.316Z,3.30
2022-11-03T14:08:19.007Z,2.20
2022-11-03T14:10:45.707Z,2.58
2022-11-03T14:13:12.414Z,2.55
2022-11-03T14:15:39.108Z,2.53
2022-11-03T14:18:05.890Z,2.75
2022-11-03T14:20:35.076Z,2.90
2022-11-03T14:23:04.025Z,1.95
2022-11-03T14:25:30.854Z,2.83
2022-11-03T14:28:00.041Z,2.50
2022-11-03T14:30:26.807Z,2.42
2022-11-03T14:33:06.501Z,2.25
2022-11-03T14:35:33.224Z,2.30
2022-11-03T14:37:59.866Z,2.70
2022-11-03T14:40:45.013Z,2.17
2022-11-03T14:43:14.708Z,2.60
2022-11-03T14:45:42.643Z,2.85
2022-11-03T14:48:09.856Z,2.33
2022-11-03T14:50:37.142Z,2.50
2022-11-03T14:53:03.821Z,2.72
2022-11-03T14:55:30.503Z,2.90
2022-11-03T14:57:57.211Z,2.83
2022-11-03T15:00:24.018Z,2.55
2022-11-03T15:02:50.724Z,2.70
2022-11-03T15:05:52.787Z,3.45
2022-11-03T15:08:19.788Z,3.15
2022-11-03T15:10:46.522Z,2.75
2022-11-03T15:13:13.426Z,2.70
2022-11-03T15:15:43.032Z,2.85
2022-11-03T15:18:10.342Z,3.45
2022-11-03T15:20:37.338Z,2.92
2022-11-03T15:25:52.161Z,3.00
2022-11-03T15:28:21.004Z,3.42
2022-11-03T15:30:50.997Z,2.85
2022-11-03T15:33:17.766Z,2.88
2022-11-03T15:35:44.745Z,3.30
2022-11-03T15:38:16.222Z,3.42
2022-11-03T15:40:42.859Z,2.78
2022-11-03T15:43:09.921Z,2.55
2022-11-03T15:45:36.596Z,3.05
2022-11-03T15:48:05.674Z,2.75
2022-11-03T15:50:32.566Z,2.87
2022-11-03T15:53:01.385Z,2.97
2022-11-03T15:55:28.152Z,2.90
2022-11-03T15:57:54.788Z,2.80
2022-11-03T16:00:21.506Z,2.80
2022-11-03T16:02:48.295Z,2.45
2022-11-03T16:05:15.313Z,3.17
2022-11-03T16:07:42.054Z,2.85
2022-11-03T16:10:09.001Z,2.85
2022-11-03T16:12:36.194Z,2.72
2022-11-03T16:15:03.238Z,3.30
2022-11-03T16:17:29.962Z,2.60
2022-11-03T16:19:56.640Z,3.38
2022-11-03T16:22:23.314Z,3.20
2022-11-03T16:24:50.030Z,3.50
2022-11-03T16:27:18.989Z,2.80
2022-11-03T16:29:45.788Z,2.67
2022-11-03T16:32:14.729Z,3.25
2022-11-03T16:34:41.510Z,2.97
2022-11-03T16:37:08.150Z,3.63
2022-11-03T16:39:39.499Z,3.22
2022-11-03T16:42:06.372Z,3.10
2022-11-03T16:44:34.559Z,2.80
2022-11-03T16:47:01.765Z,2.83
2022-11-03T16:49:28.513Z,3.28
2022-11-03T16:51:55.325Z,3.05
2022-11-03T16:54:22.616Z,3.28
2022-11-03T16:56:54.340Z,2.83
2022-11-03T16:59:24.300Z,3.43
2022-11-03T17:01:51.293Z,2.60
2022-11-03T17:04:18.212Z,3.17
2022-11-03T17:06:47.536Z,2.95
2022-11-03T17:09:16.390Z,2.80
2022-11-03T17:11:45.209Z,3.10
2022-11-03T17:14:14.908Z,2.97
2022-11-03T17:16:42.500Z,2.92
2022-11-03T17:19:09.381Z,2.58
2022-11-03T17:21:36.064Z,2.50
2022-11-03T17:24:03.926Z,2.78
2022-11-03T17:27:04.693Z,2.95
2022-11-03T17:29:56.931Z,2.20
2022-11-03T17:32:24.332Z,2.55
2022-11-03T17:34:52.868Z,3.22
2022-11-03T17:37:20.637Z,2.53
2022-11-03T17:39:47.428Z,2.53
2022-11-03T17:42:21.583Z,2.97
2022-11-03T17:44:50.344Z,2.65
2022-11-03T17:47:20.663Z,2.85
2022-11-03T17:49:48.296Z,2.80
2022-11-03T17:52:28.622Z,2.45
2022-11-03T17:54:58.214Z,2.92
2022-11-03T17:57:26.329Z,3.13
2022-11-03T17:59:55.375Z,2.75
2022-11-03T18:02:29.883Z,2.57
2022-11-03T18:05:21.431Z,3.15
2022-11-03T18:07:51.358Z,2.92
2022-11-03T18:10:18.247Z,2.70
2022-11-03T18:13:06.493Z,2.80
2022-11-03T18:15:38.226Z,2.88
2022-11-03T18:18:38.199Z,2.80
2022-11-03T18:21:05.386Z,3.00
2022-11-03T18:23:35.677Z,2.97
2022-11-03T18:26:09.800Z,2.47
2022-11-03T18:28:36.428Z,2.60
2022-11-03T18:31:03.187Z,2.58
2022-11-03T18:33:34.098Z,2.95
2022-11-03T18:36:06.372Z,2.70
2022-11-03T18:38:39.782Z,2.88
2022-11-03T18:41:32.341Z,2.83
2022-11-03T18:43:58.990Z,2.47
2022-11-03T18:46:25.805Z,2.85
2022-11-03T18:48:54.809Z,2.42
2022-11-03T18:51:23.732Z,3.03
2022-11-03T18:53:52.515Z,2.60
2022-11-03T18:56:22.834Z,2.28
2022-11-03T18:58:53.491Z,2.90
2022-11-03T19:01:22.885Z,2.85
2022-11-03T19:03:50.271Z,2.92
2022-11-03T19:06:20.295Z,2.75
2022-11-03T19:08:47.781Z,2.88
2022-11-03T19:11:17.151Z,2.47
2022-11-03T19:13:48.494Z,2.90
2022-11-03T19:16:16.968Z,2.85
2022-11-03T19:18:45.273Z,2.80
2022-11-03T19:21:17.819Z,2.95
2022-11-03T19:23:47.879Z,2.53
2022-11-03T19:26:41.234Z,3.38
2022-11-03T19:29:15.864Z,2.80
2022-11-03T19:31:48.727Z,2.80
2022-11-03T19:34:25.018Z,3.15
2022-11-03T19:36:52.181Z,3.28
2022-11-03T19:39:35.667Z,3.28
2022-11-03T19:42:30.931Z,3.78
2022-11-03T19:44:59.519Z,3.22
2022-11-03T19:47:34.811Z,3.75
2022-11-03T19:50:04.456Z,3.95
2022-11-03T19:52:32.549Z,3.20
2022-11-03T19:55:03.035Z,3.17
2022-11-03T19:57:29.710Z,4.07
2022-11-03T19:59:58.907Z,4.25
2022-11-03T20:02:27.906Z,3.50
2022-11-03T20:04:54.986Z,3.07
2022-11-03T20:07:23.509Z,3.35
2022-11-03T20:09:52.331Z,3.00
2022-11-03T20:12:21.363Z,4.07
2022-11-03T20:14:48.056Z,3.43
2022-11-03T20:17:17.391Z,3.28
2022-11-03T20:19:46.267Z,3.70
2022-11-03T20:22:22.713Z,3.58
2022-11-03T20:24:50.131Z,3.72
2022-11-03T20:27:20.809Z,3.10
2022-11-03T20:29:48.684Z,3.35
2022-11-03T20:32:15.991Z,3.40
2022-11-03T20:34:42.685Z,3.33
2022-11-03T20:37:20.433Z,3.08
2022-11-03T20:39:50.274Z,3.10
2022-11-03T20:44:55.603Z,2.97
2022-11-03T20:47:28.501Z,3.53
2022-11-03T20:49:55.228Z,3.88
2022-11-03T20:52:21.974Z,2.95
2022-11-03T20:54:51.837Z,3.20
2022-11-03T20:59:45.537Z,3.75
2022-11-03T21:02:13.690Z,2.90
2022-11-03T21:04:42.481Z,3.28
2022-11-03T21:07:12.640Z,3.72
2022-11-03T21:09:43.905Z,3.08
2022-11-03T21:12:14.222Z,3.00
2022-11-03T21:15:04.718Z,2.67
2022-11-03T21:17:49.940Z,3.28
2022-11-03T21:20:16.776Z,3.45
2022-11-03T21:22:53.347Z,3.13
2022-11-03T21:25:23.207Z,3.10
2022-11-03T21:27:50.651Z,3.28
2022-11-03T21:30:20.892Z,3.15
2022-11-03T21:32:48.061Z,3.42
2022-11-03T21:35:17.593Z,3.47
2022-11-03T21:37:47.170Z,2.90
2022-11-03T21:40:23.743Z,3.63
2022-11-03T21:43:08.879Z,3.80
2022-11-03T21:45:37.938Z,3.10
2022-11-03T21:48:23.806Z,3.20
2022-11-03T21:50:50.727Z,3.15
2022-11-03T21:53:21.925Z,3.42
2022-11-03T21:55:51.218Z,3.30
2022-11-03T21:58:22.747Z,3.30
2022-11-03T22:00:49.526Z,3.42
2022-11-03T22:03:23.745Z,3.25
2022-11-03T22:05:50.380Z,2.97
2022-11-03T22:08:17.241Z,4.20
2022-11-03T22:10:45.834Z,3.25
2022-11-03T22:13:13.819Z,3.45
2022-11-03T22:16:01.781Z,3.55
2022-11-03T22:18:28.520Z,3.58
2022-11-03T22:21:16.836Z,4.13
2022-11-03T22:24:02.231Z,3.30
2022-11-03T22:26:50.227Z,3.85
2022-11-03T22:29:35.843Z,3.55
2022-11-03T22:32:06.097Z,3.50
2022-11-03T22:34:51.236Z,4.00
2022-11-03T22:37:22.874Z,3.10
2022-11-03T22:40:10.363Z,3.40
2022-11-03T22:42:55.865Z,3.80
2022-11-03T22:45:41.297Z,3.13
2022-11-03T22:48:07.958Z,2.85
2022-11-03T22:50:34.617Z,1.95
2022-11-03T22:53:24.081Z,2.10
2022-11-03T22:55:51.361Z,1.98
2022-11-03T22:58:18.079Z,2.00
2022-11-03T23:00:45.383Z,1.70
2022-11-03T23:03:12.082Z,1.58
2022-11-03T23:05:39.054Z,1.27
2022-11-03T23:08:08.294Z,1.30
2022-11-03T23:10:34.950Z,1.30
2022-11-03T23:13:01.751Z,1.10
2022-11-03T23:15:34.489Z,1.48
2022-11-03T23:18:21.216Z,1.00
2022-11-03T23:21:06.728Z,0.60
2022-11-03T23:23:56.823Z,0.52
2022-11-03T23:26:25.901Z,0.60
2022-11-03T23:28:55.008Z,0.60
2022-11-03T23:31:23.969Z,0.60
2022-11-03T23:33:50.671Z,0.60
2022-11-03T23:36:17.997Z,0.40
2022-11-03T23:38:45.147Z,0.50
2022-11-03T23:41:17.389Z,0.60
2022-11-03T23:43:45.229Z,0.65
2022-11-03T23:46:32.266Z,0.60
2022-11-03T23:48:59.285Z,0.88
2022-11-03T23:51:28.010Z,0.57
2022-11-03T23:53:58.112Z,0.50
2022-11-03T23:56:45.385Z,0.70
2022-11-03T23:59:14.032Z,0.55
